Time;durP1;ratioP1;P1;durP2;ratioP2;P2;SDS_P1;SDS_P2;PMS_P1;PMS_P2;Temp;Humidity;BMP_temperature;BMP_pressure;BME280_temperature;BME280_humidity;BME280_pressure;Samples;Min_cycle;Max_cycle;Signal;HPM_P1;HPM_P2
2022/10/23 00:01:14;;;;;;;11.00;9.90;;;20.10;75.90;;;;;;4977852;28;43488;-72
2022/10/23 00:03:41;;;;;;;12.90;10.50;;;20.00;75.80;;;;;;4973323;28;46014;-71
2022/10/23 00:06:10;;;;;;;13.47;10.50;;;20.00;75.80;;;;;;4977434;28;44745;-70
2022/10/23 00:08:38;;;;;;;13.30;11.03;;;20.00;76.30;;;;;;4973239;28;43468;-71
2022/10/23 00:11:07;;;;;;;11.67;10.43;;;20.00;76.30;;;;;;4979580;28;43588;-71
2022/10/23 00:13:35;;;;;;;10.73;9.73;;;20.00;76.10;;;;;;4975259;28;44013;-71
2022/10/23 00:16:03;;;;;;;10.87;9.77;;;20.00;76.00;;;;;;4974776;28;45006;-72
2022/10/23 00:18:32;;;;;;;11.40;10.20;;;20.00;76.00;;;;;;4973728;28;43550;-71
2022/10/23 00:21:02;;;;;;;13.33;10.70;;;20.00;76.20;;;;;;4984757;28;43487;-72
2022/10/23 00:23:30;;;;;;;11.43;10.07;;;20.00;76.60;;;;;;4988961;28;43925;-72
2022/10/23 00:25:59;;;;;;;11.83;10.53;;;20.00;76.30;;;;;;4991391;28;43513;-71
2022/10/23 00:28:27;;;;;;;12.13;10.27;;;20.20;75.90;;;;;;4985902;28;43444;-71
2022/10/23 00:30:55;;;;;;;9.60;8.80;;;20.30;75.30;;;;;;4983625;28;43461;-71
2022/10/23 00:33:23;;;;;;;11.30;10.10;;;20.40;74.80;;;;;;4976443;28;45967;-72
2022/10/23 00:35:53;;;;;;;11.23;10.00;;;20.50;74.70;;;;;;4981946;28;45043;-71
2022/10/23 00:38:21;;;;;;;10.40;9.40;;;20.40;74.60;;;;;;4991537;28;43329;-72
2022/10/23 00:40:49;;;;;;;9.97;9.00;;;20.30;74.60;;;;;;4979956;28;43624;-71
2022/10/23 00:43:18;;;;;;;10.53;9.53;;;20.30;74.90;;;;;;4981775;28;44002;-72
2022/10/23 00:45:46;;;;;;;10.00;9.20;;;20.20;75.40;;;;;;4971931;28;43426;-71
2022/10/23 00:48:15;;;;;;;10.00;9.00;;;20.20;75.60;;;;;;4979801;28;43525;-72
2022/10/23 00:50:43;;;;;;;10.33;9.30;;;20.20;75.60;;;;;;4983942;28;43464;-72
2022/10/23 00:53:12;;;;;;;9.77;8.97;;;20.10;75.40;;;;;;4985024;28;43852;-73
2022/10/23 00:55:44;;;;;;;9.53;8.73;;;20.10;75.60;;;;;;4988244;28;43460;-72
2022/10/23 00:58:12;;;;;;;9.33;8.53;;;20.00;75.80;;;;;;4985780;28;43456;-71
2022/10/23 01:00:43;;;;;;;9.30;8.50;;;20.00;76.10;;;;;;4984283;28;43884;-70
2022/10/23 01:03:11;;;;;;;9.10;8.30;;;20.00;75.90;;;;;;4979796;28;43845;-73
2022/10/23 01:05:42;;;;;;;9.90;8.90;;;20.00;75.80;;;;;;4983237;28;43509;-71
2022/10/23 01:08:12;;;;;;;8.87;8.17;;;20.00;75.90;;;;;;4980142;28;43484;-71
2022/10/23 01:10:41;;;;;;;9.53;8.63;;;19.90;75.90;;;;;;4972966;28;43492;-70
2022/10/23 01:13:12;;;;;;;9.67;8.67;;;20.00;76.50;;;;;;4972007;28;45999;-72
2022/10/23 01:15:43;;;;;;;9.13;8.23;;;20.10;76.20;;;;;;4987631;28;45184;-72
2022/10/23 01:18:14;;;;;;;9.40;8.50;;;20.20;75.70;;;;;;4980892;28;43505;-72
2022/10/23 01:20:48;;;;;;;9.00;8.20;;;20.30;75.10;;;;;;4979007;28;43558;-71
2022/10/23 01:23:37;;;;;;;9.37;8.57;;;20.40;74.70;;;;;;4979418;28;44117;-71
2022/10/23 01:26:23;;;;;;;8.73;7.97;;;20.40;74.60;;;;;;4971758;28;43501;-71
2022/10/23 01:28:55;;;;;;;8.43;7.63;;;20.40;74.70;;;;;;4977018;28;43497;-72
2022/10/23 01:31:25;;;;;;;8.43;7.63;;;20.20;74.80;;;;;;4986411;28;43714;-71
2022/10/23 01:33:57;;;;;;;8.33;7.63;;;20.20;75.40;;;;;;4980385;28;43835;-72
2022/10/23 01:36:28;;;;;;;8.40;7.70;;;20.20;75.50;;;;;;4981289;28;44859;-71
2022/10/23 01:38:59;;;;;;;8.13;7.43;;;20.20;75.60;;;;;;4974214;28;43505;-71
2022/10/23 01:41:29;;;;;;;8.07;7.47;;;20.10;75.40;;;;;;4973107;28;43533;-71
2022/10/23 01:44:01;;;;;;;8.70;7.90;;;20.00;75.50;;;;;;4972809;28;43929;-71
2022/10/23 01:46:34;;;;;;;8.67;7.87;;;20.00;75.80;;;;;;4981051;28;43440;-70
2022/10/23 01:49:04;;;;;;;8.83;8.07;;;20.00;76.10;;;;;;4980709;28;44012;-72
2022/10/23 01:51:32;;;;;;;8.10;7.40;;;20.10;75.90;;;;;;4979739;28;44123;-72
2022/10/23 01:54:05;;;;;;;7.40;6.80;;;20.20;75.40;;;;;;4987067;28;44501;-71
2022/10/23 01:56:34;;;;;;;8.10;7.40;;;20.30;75.20;;;;;;4987135;28;43815;-71
2022/10/23 01:59:05;;;;;;;7.20;6.60;;;20.30;75.00;;;;;;4982254;28;43601;-70
2022/10/23 02:01:37;;;;;;;8.30;7.50;;;20.20;75.30;;;;;;4984686;28;43527;-70
2022/10/23 02:04:06;;;;;;;7.73;7.13;;;20.20;75.30;;;;;;4978044;28;45712;-71
2022/10/23 02:06:34;;;;;;;7.63;7.03;;;20.20;75.20;;;;;;4979406;28;43567;-70
2022/10/23 02:09:02;;;;;;;7.33;6.83;;;20.20;75.10;;;;;;4982697;28;43660;-72
2022/10/23 02:11:29;;;;;;;6.97;6.50;;;20.10;75.20;;;;;;4979823;28;44017;-71
2022/10/23 02:13:59;;;;;;;7.97;7.37;;;20.10;75.60;;;;;;4976880;28;44072;-71
2022/10/23 02:16:32;;;;;;;7.63;6.97;;;20.00;75.70;;;;;;4982000;28;45027;-71
2022/10/23 02:19:04;;;;;;;7.10;6.50;;;20.10;75.70;;;;;;4975492;28;43997;-70
2022/10/23 02:21:34;;;;;;;6.90;6.40;;;20.00;75.60;;;;;;4979279;28;43482;-71
2022/10/23 02:24:03;;;;;;;7.37;6.77;;;20.00;75.70;;;;;;4982719;28;43978;-70
2022/10/23 02:26:34;;;;;;;6.80;6.33;;;20.00;75.90;;;;;;4985581;28;43528;-71
2022/10/23 02:29:07;;;;;;;7.63;6.87;;;20.00;76.20;;;;;;4983498;28;43575;-71
2022/10/23 02:31:37;;;;;;;6.77;6.37;;;20.10;75.90;;;;;;4980510;28;43493;-71
2022/10/23 02:34:05;;;;;;;6.83;6.20;;;20.20;75.40;;;;;;4985332;28;43954;-72
2022/10/23 02:36:33;;;;;;;7.33;6.73;;;20.20;75.10;;;;;;4980619;28;43558;-71
2022/10/23 02:39:03;;;;;;;6.77;6.23;;;20.30;75.10;;;;;;5001515;28;43516;-71
2022/10/23 02:41:37;;;;;;;7.10;6.60;;;20.20;75.20;;;;;;4979029;28;43573;-70
2022/10/23 02:44:28;;;;;;;6.40;5.90;;;20.20;75.20;;;;;;4976577;28;44056;-70
2022/10/23 02:47:06;;;;;;;6.77;6.27;;;20.20;75.10;;;;;;4981546;28;43473;-72
2022/10/23 02:49:37;;;;;;;6.20;5.80;;;20.20;75.20;;;;;;4983585;28;44102;-72
2022/10/23 02:52:11;;;;;;;6.03;5.63;;;20.10;75.20;;;;;;4979023;28;43816;-71
2022/10/23 02:54:46;;;;;;;6.03;5.63;;;20.10;75.80;;;;;;4983628;28;45701;-70
2022/10/23 02:57:19;;;;;;;6.77;6.27;;;20.10;75.80;;;;;;4983631;28;43439;-73
2022/10/23 02:59:52;;;;;;;5.87;5.47;;;20.00;75.60;;;;;;4985201;28;43915;-73
2022/10/23 03:02:23;;;;;;;5.40;5.10;;;20.00;75.50;;;;;;4984651;28;43511;-71
2022/10/23 03:04:52;;;;;;;6.30;5.80;;;20.00;75.70;;;;;;4986118;28;43860;-73
2022/10/23 03:07:20;;;;;;;6.50;6.10;;;20.00;76.00;;;;;;4977610;28;44841;-70
2022/10/23 03:09:49;;;;;;;5.70;5.40;;;20.00;76.20;;;;;;4978700;28;43477;-72
2022/10/23 03:12:17;;;;;;;5.93;5.57;;;20.00;75.90;;;;;;4984360;28;43384;-72
2022/10/23 03:14:45;;;;;;;6.23;5.83;;;20.20;75.40;;;;;;4990391;28;46137;-72
2022/10/23 03:17:13;;;;;;;5.97;5.57;;;20.20;75.10;;;;;;4984892;28;44912;-70
2022/10/23 03:19:42;;;;;;;5.60;5.30;;;20.30;75.00;;;;;;4980943;28;43463;-72
2022/10/23 03:22:10;;;;;;;5.50;5.17;;;20.20;75.20;;;;;;4979393;28;43529;-72
2022/10/23 03:24:37;;;;;;;6.00;5.60;;;20.20;75.30;;;;;;4976205;28;46016;-72
2022/10/23 03:27:05;;;;;;;5.80;5.40;;;20.20;75.10;;;;;;4979710;28;44605;-72
2022/10/23 03:29:33;;;;;;;5.07;4.77;;;20.20;75.10;;;;;;4983187;28;43803;-71
2022/10/23 03:32:01;;;;;;;5.43;5.13;;;20.10;75.10;;;;;;4974762;28;43947;-71
2022/10/23 03:34:29;;;;;;;5.73;5.33;;;20.10;75.30;;;;;;4977581;28;43860;-71
2022/10/23 03:36:58;;;;;;;5.37;5.07;;;20.00;75.80;;;;;;4980047;28;43370;-73
2022/10/23 03:39:26;;;;;;;4.97;4.67;;;20.10;75.80;;;;;;4980184;28;43847;-71
2022/10/23 03:41:54;;;;;;;5.00;4.70;;;20.00;75.50;;;;;;4980575;28;43598;-70
2022/10/23 03:44:22;;;;;;;5.10;4.90;;;20.00;75.60;;;;;;4984299;28;45779;-72
2022/10/23 03:46:50;;;;;;;5.07;4.77;;;20.00;75.70;;;;;;4978000;28;43520;-71
2022/10/23 03:49:18;;;;;;;5.00;4.70;;;19.90;76.10;;;;;;4984981;28;43458;-71
2022/10/23 03:51:50;;;;;;;5.40;5.03;;;20.00;76.10;;;;;;4982732;28;43584;-72
2022/10/23 03:54:23;;;;;;;4.80;4.60;;;20.10;75.60;;;;;;4983857;28;44038;-70
2022/10/23 03:56:51;;;;;;;4.97;4.77;;;20.20;75.10;;;;;;4981931;28;43452;-71
2022/10/23 03:59:24;;;;;;;5.60;5.30;;;20.40;74.60;;;;;;4981922;28;43500;-73
2022/10/23 04:01:52;;;;;;;4.60;4.40;;;20.40;74.30;;;;;;4975689;28;43651;-72
2022/10/23 04:04:20;;;;;;;4.77;4.50;;;20.40;74.30;;;;;;4976581;28;45314;-72
2022/10/23 04:06:48;;;;;;;4.90;4.60;;;20.30;74.30;;;;;;4980482;28;43475;-71
2022/10/23 04:09:16;;;;;;;4.80;4.60;;;20.30;74.60;;;;;;4973719;28;43596;-73
2022/10/23 04:11:46;;;;;;;4.33;4.13;;;20.20;75.10;;;;;;4970469;28;44314;-70
2022/10/23 04:14:14;;;;;;;4.33;4.23;;;20.20;75.30;;;;;;4970972;28;45687;-71
2022/10/23 04:16:42;;;;;;;4.40;4.20;;;20.20;75.20;;;;;;4986889;28;43510;-71
2022/10/23 04:19:10;;;;;;;4.50;4.30;;;20.10;75.10;;;;;;4982339;28;44009;-71
2022/10/23 04:21:38;;;;;;;4.63;4.43;;;20.10;75.30;;;;;;4985197;28;43697;-71
2022/10/23 04:24:06;;;;;;;4.67;4.47;;;20.00;75.60;;;;;;4981034;28;44191;-71
2022/10/23 04:26:34;;;;;;;4.23;4.03;;;20.00;75.70;;;;;;4986018;28;44101;-70
2022/10/23 04:29:04;;;;;;;4.60;4.30;;;20.00;75.60;;;;;;4978742;28;43934;-71
2022/10/23 04:31:32;;;;;;;4.50;4.30;;;20.00;75.50;;;;;;4992535;28;43520;-71
2022/10/23 04:34:00;;;;;;;4.00;3.80;;;20.00;75.60;;;;;;4982637;28;44015;-70
2022/10/23 04:36:32;;;;;;;4.40;4.20;;;20.00;75.70;;;;;;4979835;28;44771;-71
2022/10/23 04:39:08;;;;;;;3.90;3.67;;;20.00;76.10;;;;;;4984758;28;44105;-73
2022/10/23 04:41:37;;;;;;;4.40;4.20;;;20.00;75.80;;;;;;4982171;28;43600;-73
2022/10/23 04:44:07;;;;;;;4.13;3.93;;;20.20;75.40;;;;;;4981858;28;45598;-73
2022/10/23 04:46:38;;;;;;;4.10;4.00;;;20.30;74.80;;;;;;4978043;28;43896;-71
2022/10/23 04:49:06;;;;;;;3.70;3.50;;;20.40;74.40;;;;;;4982728;28;43615;-70
2022/10/23 04:51:48;;;;;;;4.30;4.10;;;20.40;74.30;;;;;;4981061;28;43948;-72
2022/10/23 04:54:38;;;;;;;4.17;3.97;;;20.40;74.30;;;;;;4974937;28;43610;-72
2022/10/23 04:57:23;;;;;;;3.70;3.60;;;20.30;74.50;;;;;;4975173;28;43521;-71
2022/10/23 05:00:13;;;;;;;4.43;4.23;;;20.20;75.00;;;;;;4978988;28;43925;-71
2022/10/23 05:02:47;;;;;;;3.50;3.40;;;20.20;75.30;;;;;;4978563;28;43498;-71
2022/10/23 05:05:17;;;;;;;3.50;3.30;;;20.20;75.30;;;;;;4982418;28;44049;-70
2022/10/23 05:07:55;;;;;;;3.60;3.50;;;20.10;75.20;;;;;;4976149;28;44804;-71
2022/10/23 05:10:33;;;;;;;3.50;3.40;;;20.00;75.30;;;;;;4979515;28;43556;-71
2022/10/23 05:13:09;;;;;;;3.60;3.50;;;20.00;75.70;;;;;;4978420;28;43533;-70
2022/10/23 05:15:38;;;;;;;3.67;3.57;;;20.00;75.80;;;;;;4995829;28;43871;-71
2022/10/23 05:18:10;;;;;;;3.10;3.00;;;20.00;75.60;;;;;;4975076;28;44927;-70
2022/10/23 05:20:37;;;;;;;3.57;3.47;;;20.00;75.50;;;;;;4988179;28;43618;-71
2022/10/23 05:23:09;;;;;;;3.37;3.27;;;20.00;75.60;;;;;;4973354;28;43539;-70
2022/10/23 05:25:38;;;;;;;3.30;3.20;;;19.90;75.80;;;;;;4981520;28;45973;-71
2022/10/23 05:28:15;;;;;;;3.30;3.20;;;19.90;76.10;;;;;;4981000;28;43560;-71
2022/10/23 05:30:45;;;;;;;3.27;3.17;;;20.10;75.80;;;;;;4983236;28;43481;-72
2022/10/23 05:33:15;;;;;;;3.20;3.10;;;20.20;75.30;;;;;;4981186;28;43509;-72
2022/10/23 05:35:44;;;;;;;3.57;3.47;;;20.40;74.80;;;;;;4976498;28;44004;-72
2022/10/23 05:38:14;;;;;;;3.33;3.23;;;20.40;74.30;;;;;;4968285;28;44856;-71
2022/10/23 05:40:43;;;;;;;2.93;2.83;;;20.40;74.10;;;;;;4979404;28;43528;-72
2022/10/23 05:43:17;;;;;;;3.30;3.20;;;20.40;74.20;;;;;;4978305;28;43513;-70
2022/10/23 05:46:04;;;;;;;3.20;3.10;;;20.30;74.30;;;;;;4982512;28;45813;-71
2022/10/23 05:49:09;;;;;;;3.10;3.00;;;20.20;74.60;;;;;;4982828;28;43739;-71
2022/10/23 05:51:50;;;;;;;3.10;3.00;;;20.20;75.20;;;;;;4976897;28;43472;-72
2022/10/23 05:54:43;;;;;;;3.37;3.17;;;20.10;75.10;;;;;;4972514;28;43441;-71
2022/10/23 05:57:21;;;;;;;3.00;2.90;;;20.10;75.10;;;;;;4976976;28;45697;-70
2022/10/23 05:59:51;;;;;;;3.10;3.00;;;20.10;75.30;;;;;;4991663;28;43884;-72
2022/10/23 06:02:39;;;;;;;3.00;2.90;;;20.00;75.60;;;;;;4973014;28;43464;-71
2022/10/23 06:05:23;;;;;;;2.70;2.60;;;20.00;75.70;;;;;;4973740;28;43449;-71
2022/10/23 06:08:14;;;;;;;3.20;3.10;;;20.00;75.60;;;;;;4976207;28;43686;-72
2022/10/23 06:10:42;;;;;;;2.90;2.80;;;20.00;75.50;;;;;;4985910;28;43452;-72
2022/10/23 06:13:11;;;;;;;2.83;2.73;;;19.90;75.50;;;;;;4999995;28;43623;-70
2022/10/23 06:15:40;;;;;;;3.00;2.90;;;19.90;76.70;;;;;;4978794;28;44166;-71
2022/10/23 06:18:21;;;;;;;3.17;3.07;;;19.90;76.00;;;;;;4979489;28;44034;-72
2022/10/23 06:21:00;;;;;;;3.00;2.90;;;20.00;75.70;;;;;;4981021;28;44013;-70
2022/10/23 06:23:30;;;;;;;2.80;2.70;;;20.20;75.20;;;;;;4982063;28;43504;-71
2022/10/23 06:26:21;;;;;;;2.37;2.37;;;20.20;74.80;;;;;;4968186;28;43700;-72
2022/10/23 06:29:05;;;;;;;2.87;2.77;;;20.20;74.70;;;;;;4969308;28;44072;-70
2022/10/23 06:31:33;;;;;;;2.93;2.83;;;20.20;75.00;;;;;;4976368;28;44476;-70
2022/10/23 06:34:04;;;;;;;2.73;2.63;;;20.20;75.10;;;;;;4981447;28;43574;-72
2022/10/23 06:36:33;;;;;;;2.73;2.63;;;20.20;75.00;;;;;;4976283;28;43940;-71
2022/10/23 06:39:20;;;;;;;2.63;2.53;;;20.10;75.00;;;;;;4980211;28;44028;-72
2022/10/23 06:42:03;;;;;;;2.53;2.53;;;20.00;75.10;;;;;;4979238;28;43491;-71
2022/10/23 06:44:49;;;;;;;2.70;2.60;;;20.00;75.60;;;;;;4973568;28;43531;-72
2022/10/23 06:47:32;;;;;;;2.63;2.60;;;20.00;75.50;;;;;;4983283;28;43795;-70
2022/10/23 06:50:24;;;;;;;2.50;2.50;;;20.00;75.40;;;;;;4968924;28;43814;-71
2022/10/23 06:52:53;;;;;;;2.43;2.37;;;20.00;75.60;;;;;;4981795;28;44460;-71
2022/10/23 06:55:22;;;;;;;2.37;2.37;;;19.90;75.90;;;;;;4986435;28;43992;-71
2022/10/23 06:57:51;;;;;;;2.63;2.53;;;19.90;76.10;;;;;;4997123;28;43397;-72
2022/10/23 07:00:20;;;;;;;2.40;2.40;;;20.00;75.70;;;;;;4981545;28;45662;-71
2022/10/23 07:02:50;;;;;;;2.30;2.30;;;20.20;75.40;;;;;;4976191;28;43836;-71
2022/10/23 07:05:18;;;;;;;2.50;2.50;;;20.30;74.80;;;;;;4982583;28;44036;-72
2022/10/23 07:07:47;;;;;;;2.60;2.50;;;20.40;74.50;;;;;;4986838;28;43596;-70
2022/10/23 07:10:21;;;;;;;2.30;2.30;;;20.40;74.40;;;;;;4977674;28;44066;-72
2022/10/23 07:12:59;;;;;;;2.23;2.23;;;20.30;74.40;;;;;;4981503;28;44352;-73
2022/10/23 07:15:39;;;;;;;2.60;2.50;;;20.20;74.60;;;;;;4999783;28;44099;-71
2022/10/23 07:18:13;;;;;;;2.63;2.57;;;20.10;75.20;;;;;;4981291;28;43492;-72
2022/10/23 07:21:01;;;;;;;2.27;2.27;;;20.10;75.40;;;;;;4984409;28;43966;-71
2022/10/23 07:23:32;;;;;;;2.50;2.47;;;20.10;75.40;;;;;;4980041;28;43457;-73
2022/10/23 07:26:04;;;;;;;2.30;2.30;;;20.00;75.30;;;;;;4980535;28;43793;-71
2022/10/23 07:28:34;;;;;;;2.10;2.10;;;20.00;75.40;;;;;;4998180;28;44081;-71
2022/10/23 07:31:02;;;;;;;2.30;2.30;;;19.90;75.80;;;;;;4982539;28;44064;-72
2022/10/23 07:33:50;;;;;;;2.30;2.23;;;19.90;75.90;;;;;;4979025;28;43896;-71
2022/10/23 07:36:20;;;;;;;2.33;2.23;;;19.90;75.80;;;;;;4979946;28;43450;-72
2022/10/23 07:38:50;;;;;;;2.00;2.00;;;19.90;75.60;;;;;;4982429;28;44101;-70
2022/10/23 07:41:18;;;;;;;2.33;2.33;;;19.90;75.70;;;;;;4978789;28;47374;-71
2022/10/23 07:43:46;;;;;;;2.10;2.10;;;19.90;75.80;;;;;;4983608;28;44390;-71
2022/10/23 07:46:14;;;;;;;2.20;2.20;;;19.90;76.30;;;;;;4972879;28;43367;-71
2022/10/23 07:48:42;;;;;;;2.20;2.20;;;19.90;75.90;;;;;;4979901;28;43474;-71
2022/10/23 07:51:12;;;;;;;2.43;2.37;;;20.10;75.60;;;;;;4979961;28;45993;-70
2022/10/23 07:53:46;;;;;;;2.30;2.20;;;20.30;75.00;;;;;;4990286;28;44703;-70
2022/10/23 07:56:31;;;;;;;2.13;2.13;;;20.30;74.60;;;;;;4982015;28;43505;-71
2022/10/23 07:59:20;;;;;;;2.03;2.03;;;20.30;74.40;;;;;;4983920;28;44440;-71
2022/10/23 08:01:55;;;;;;;2.33;2.33;;;20.30;74.50;;;;;;4983243;28;44886;-71
2022/10/23 08:04:27;;;;;;;8.47;2.57;;;20.20;74.70;;;;;;4981338;28;44736;-71
2022/10/23 08:07:02;;;;;;;2.50;2.30;;;20.10;74.80;;;;;;4977879;28;43512;-70
2022/10/23 08:09:36;;;;;;;2.30;2.20;;;20.10;74.90;;;;;;4978157;28;43597;-71
2022/10/23 08:12:06;;;;;;;3.27;2.30;;;20.10;75.20;;;;;;4992827;28;45462;-71
2022/10/23 08:14:34;;;;;;;3.43;2.10;;;20.00;75.10;;;;;;4976350;28;44929;-71
2022/10/23 08:17:03;;;;;;;2.37;2.17;;;20.00;75.30;;;;;;4979464;28;43556;-70
2022/10/23 08:19:54;;;;;;;5.20;2.43;;;19.90;75.40;;;;;;4984987;28;43537;-72
2022/10/23 08:22:25;;;;;;;2.60;2.30;;;19.90;76.00;;;;;;4982287;28;44049;-73
2022/10/23 08:24:54;;;;;;;2.20;2.10;;;19.90;75.70;;;;;;4995755;28;43490;-73
2022/10/23 08:27:23;;;;;;;2.30;2.20;;;19.90;75.50;;;;;;4983393;28;43502;-71
2022/10/23 08:29:52;;;;;;;2.20;2.10;;;19.90;75.60;;;;;;4980000;28;43588;-71
2022/10/23 08:32:21;;;;;;;2.60;2.50;;;19.90;75.80;;;;;;4980791;28;45649;-73
2022/10/23 08:34:55;;;;;;;2.50;2.30;;;19.80;76.90;;;;;;4983060;28;43480;-71
2022/10/23 08:37:24;;;;;;;2.73;2.33;;;19.90;76.00;;;;;;4980440;28;43532;-72
2022/10/23 08:39:53;;;;;;;2.57;2.37;;;20.00;75.00;;;;;;4972606;28;43681;-71
2022/10/23 08:42:53;;;;;;;2.37;2.17;;;20.10;74.30;;;;;;4979472;28;43772;-71
2022/10/23 08:45:30;;;;;;;5.17;2.30;;;20.20;74.00;;;;;;4994053;28;44810;-72
2022/10/23 08:48:10;;;;;;;3.50;2.20;;;20.20;73.90;;;;;;4979858;28;43496;-73
2022/10/23 08:51:13;;;;;;;2.20;2.10;;;20.20;74.00;;;;;;4956762;28;43784;-73
2022/10/23 08:53:43;;;;;;;2.87;2.27;;;20.10;74.30;;;;;;4976447;28;46513;-71
2022/10/23 08:56:13;;;;;;;3.30;2.13;;;20.10;74.60;;;;;;4978898;28;43440;-72
2022/10/23 08:58:45;;;;;;;3.33;2.27;;;20.00;74.80;;;;;;4975990;28;43980;-70
2022/10/23 09:01:34;;;;;;;2.40;2.30;;;20.00;74.90;;;;;;4976365;28;43564;-71
2022/10/23 09:04:02;;;;;;;3.23;2.20;;;20.00;75.00;;;;;;4977200;28;44143;-71
2022/10/23 09:06:34;;;;;;;3.37;2.20;;;20.00;75.30;;;;;;4978266;28;43550;-72
2022/10/23 09:09:16;;;;;;;3.07;1.80;;;19.90;75.40;;;;;;4977764;28;44091;-72
2022/10/23 09:11:46;;;;;;;3.50;2.10;;;19.90;75.70;;;;;;4977361;28;43490;-71
2022/10/23 09:14:27;;;;;;;3.10;1.90;;;19.80;75.50;;;;;;4976302;28;44025;-72
2022/10/23 09:17:01;;;;;;;1.80;1.80;;;19.90;75.70;;;;;;4976628;28;43484;-70
2022/10/23 09:19:30;;;;;;;3.40;2.30;;;19.90;75.80;;;;;;4978674;28;43384;-71
2022/10/23 09:21:58;;;;;;;2.43;2.20;;;19.80;75.80;;;;;;4979743;28;43810;-71
2022/10/23 09:24:30;;;;;;;2.50;2.17;;;19.80;76.00;;;;;;4974948;28;43928;-73
2022/10/23 09:26:59;;;;;;;3.57;2.30;;;19.90;76.00;;;;;;4974414;28;43460;-71
2022/10/23 09:29:30;;;;;;;2.23;2.13;;;20.00;75.60;;;;;;4977399;28;44082;-70
2022/10/23 09:31:59;;;;;;;2.27;2.10;;;20.20;75.20;;;;;;4976248;28;43476;-71
2022/10/23 09:34:28;;;;;;;2.23;2.13;;;20.20;74.60;;;;;;4977267;28;44133;-72
2022/10/23 09:36:57;;;;;;;2.03;1.93;;;20.30;74.50;;;;;;4978117;28;44848;-72
2022/10/23 09:39:28;;;;;;;1.90;1.80;;;20.20;74.40;;;;;;4980678;28;43504;-73
2022/10/23 09:41:55;;;;;;;1.80;1.70;;;20.20;74.70;;;;;;4977187;28;43566;-71
2022/10/23 09:44:24;;;;;;;2.20;1.80;;;20.10;74.80;;;;;;4982825;28;45685;-73
2022/10/23 09:46:54;;;;;;;2.43;2.23;;;20.10;75.20;;;;;;4977220;28;44431;-73
2022/10/23 09:49:23;;;;;;;2.10;2.00;;;20.10;75.30;;;;;;4976467;28;43481;-71
2022/10/23 09:51:54;;;;;;;2.97;2.03;;;20.00;75.30;;;;;;4975253;28;43441;-71
2022/10/23 09:54:23;;;;;;;2.53;2.33;;;20.00;75.40;;;;;;4974011;28;44138;-72
2022/10/23 09:56:51;;;;;;;2.73;2.43;;;20.00;75.60;;;;;;4979133;28;43478;-72
2022/10/23 09:59:22;;;;;;;4.40;2.80;;;19.90;75.70;;;;;;4975208;28;43495;-72
2022/10/23 10:01:51;;;;;;;2.60;2.50;;;20.00;75.80;;;;;;4976399;28;43579;-70
2022/10/23 10:04:46;;;;;;;2.97;2.40;;;20.00;76.40;;;;;;4959672;28;43587;-71
2022/10/23 10:07:18;;;;;;;3.23;2.70;;;20.00;75.70;;;;;;4978312;28;43480;-71
2022/10/23 10:09:46;;;;;;;3.53;3.10;;;19.90;75.60;;;;;;4974721;28;43573;-70
2022/10/23 10:12:44;;;;;;;3.93;2.90;;;19.90;76.70;;;;;;4975096;28;43663;-71
2022/10/23 10:15:18;;;;;;;6.63;3.10;;;20.00;75.90;;;;;;4941006;28;44766;-72
2022/10/23 10:17:51;;;;;;;3.30;3.00;;;20.10;75.50;;;;;;4974465;28;43461;-72
2022/10/23 10:20:29;;;;;;;5.47;3.20;;;20.20;75.00;;;;;;4979680;28;44277;-72
2022/10/23 10:22:59;;;;;;;5.90;3.33;;;20.30;74.60;;;;;;4984382;28;43558;-71
2022/10/23 10:25:28;;;;;;;5.53;3.47;;;20.30;74.40;;;;;;4979558;28;43909;-71
2022/10/23 10:28:07;;;;;;;3.93;2.97;;;20.30;74.60;;;;;;4979839;28;43531;-71
2022/10/23 10:30:38;;;;;;;3.90;3.03;;;20.20;74.80;;;;;;4979793;28;43528;-71
2022/10/23 10:33:09;;;;;;;6.97;3.73;;;20.20;75.10;;;;;;4975721;28;43528;-71
2022/10/23 10:35:41;;;;;;;5.53;3.57;;;20.10;75.30;;;;;;4979649;28;43601;-72
2022/10/23 10:38:30;;;;;;;3.57;3.20;;;20.10;75.30;;;;;;4977326;28;43567;-72
2022/10/23 10:41:34;;;;;;;4.30;3.90;;;20.10;75.40;;;;;;4975040;28;43513;-71
2022/10/23 10:44:18;;;;;;;5.00;3.63;;;20.10;75.50;;;;;;4951039;28;43560;-72
2022/10/23 10:46:49;;;;;;;4.40;3.33;;;20.00;75.60;;;;;;4979855;28;46128;-71
2022/10/23 10:49:18;;;;;;;3.73;3.37;;;20.00;75.60;;;;;;4978086;28;44083;-71
2022/10/23 10:52:31;;;;;;;3.60;3.30;;;20.00;75.60;;;;;;4975244;28;43456;-71
2022/10/23 10:55:02;;;;;;;4.10;3.30;;;20.00;75.60;;;;;;4982790;28;44369;-72
2022/10/23 10:57:32;;;;;;;3.37;3.17;;;20.00;75.90;;;;;;4977594;28;43896;-71
2022/10/23 11:00:02;;;;;;;4.63;3.40;;;20.00;76.00;;;;;;4981225;28;44618;-71
2022/10/23 11:02:33;;;;;;;5.97;3.30;;;20.00;76.10;;;;;;4980017;28;43905;-73
2022/10/23 11:05:09;;;;;;;4.87;3.83;;;20.10;75.90;;;;;;4977006;28;43636;-72
2022/10/23 11:07:41;;;;;;;4.83;3.10;;;20.30;75.80;;;;;;4981814;28;44014;-71
2022/10/23 11:10:15;;;;;;;5.63;3.27;;;20.40;75.10;;;;;;4988378;28;44940;-71
2022/10/23 11:12:43;;;;;;;3.50;3.20;;;20.40;74.80;;;;;;4981859;28;43430;-72
2022/10/23 11:15:13;;;;;;;5.47;3.40;;;20.40;75.00;;;;;;4981232;28;44050;-71
2022/10/23 11:17:44;;;;;;;3.83;3.50;;;20.30;75.20;;;;;;4981169;28;43903;-71
2022/10/23 11:20:22;;;;;;;4.17;3.00;;;20.20;75.40;;;;;;4973772;28;44053;-71
2022/10/23 11:22:53;;;;;;;4.60;3.00;;;20.20;75.80;;;;;;4984343;28;43499;-71
2022/10/23 11:25:27;;;;;;;4.03;3.20;;;20.10;75.70;;;;;;4985211;28;44057;-71
2022/10/23 11:28:19;;;;;;;3.20;2.87;;;20.10;75.80;;;;;;4973769;28;43967;-71
2022/10/23 11:30:59;;;;;;;3.50;3.20;;;20.10;75.90;;;;;;4988086;28;43469;-70
2022/10/23 11:34:00;;;;;;;3.37;3.10;;;20.10;76.10;;;;;;4972481;28;44034;-71
2022/10/23 11:36:43;;;;;;;3.07;2.77;;;20.00;76.30;;;;;;4986986;28;43431;-70
2022/10/23 11:39:30;;;;;;;3.63;3.37;;;20.10;76.40;;;;;;4975823;28;43858;-71
2022/10/23 11:42:13;;;;;;;3.60;3.00;;;20.20;76.10;;;;;;4980122;28;43515;-71
2022/10/23 11:44:43;;;;;;;3.23;2.80;;;20.30;75.70;;;;;;4981354;28;43398;-71
2022/10/23 11:47:31;;;;;;;3.33;3.03;;;20.30;75.60;;;;;;4987069;28;43548;-71
2022/10/23 11:50:14;;;;;;;3.00;2.60;;;20.20;75.70;;;;;;4986784;28;43999;-71
2022/10/23 11:52:56;;;;;;;2.70;2.60;;;20.30;75.90;;;;;;4987894;28;44633;-73
2022/10/23 11:55:58;;;;;;;3.17;2.90;;;20.20;75.80;;;;;;4979614;28;43455;-71
2022/10/23 11:58:30;;;;;;;4.00;3.03;;;20.20;76.00;;;;;;4984209;28;43548;-70
2022/10/23 12:01:01;;;;;;;3.27;3.00;;;20.20;76.10;;;;;;4983905;28;43785;-72
2022/10/23 12:03:40;;;;;;;3.20;2.70;;;20.10;76.30;;;;;;4983289;28;43440;-71
2022/10/23 12:06:14;;;;;;;2.90;2.70;;;20.10;76.20;;;;;;4983978;28;43412;-72
2022/10/23 12:08:42;;;;;;;2.80;2.60;;;20.10;76.30;;;;;;4979922;28;44043;-70
2022/10/23 12:11:27;;;;;;;3.37;3.07;;;20.10;76.40;;;;;;4981805;28;44287;-71
2022/10/23 12:13:55;;;;;;;2.53;2.43;;;20.10;76.50;;;;;;4988722;28;43403;-72
2022/10/23 12:16:33;;;;;;;3.13;2.83;;;20.10;76.70;;;;;;4984982;28;43503;-71
2022/10/23 12:19:01;;;;;;;2.67;2.50;;;20.10;76.60;;;;;;4980225;28;43476;-71
2022/10/23 12:21:34;;;;;;;2.50;2.33;;;20.10;76.60;;;;;;4981328;28;45629;-70
2022/10/23 12:24:27;;;;;;;2.40;2.30;;;20.10;76.60;;;;;;4980496;28;44139;-70
2022/10/23 12:27:01;;;;;;;2.50;2.40;;;20.00;76.60;;;;;;4979151;28;43829;-70
2022/10/23 12:29:39;;;;;;;2.67;2.57;;;20.00;76.90;;;;;;4980840;28;43500;-71
2022/10/23 12:32:17;;;;;;;2.87;2.67;;;20.10;76.80;;;;;;4981350;28;43923;-72
2022/10/23 12:34:48;;;;;;;2.77;2.57;;;20.20;76.30;;;;;;4980491;28;45258;-71
2022/10/23 12:37:37;;;;;;;2.73;2.53;;;20.40;75.90;;;;;;4978683;28;44678;-71
2022/10/23 12:40:06;;;;;;;2.80;2.60;;;20.50;75.40;;;;;;4980835;28;44031;-70
2022/10/23 12:42:36;;;;;;;3.23;2.83;;;20.50;75.20;;;;;;4983409;28;46180;-72
2022/10/23 12:45:06;;;;;;;2.47;2.37;;;20.40;75.20;;;;;;4982679;28;43503;-72
2022/10/23 12:47:34;;;;;;;2.70;2.50;;;20.40;75.40;;;;;;4976854;28;43508;-70
2022/10/23 12:50:01;;;;;;;2.67;2.47;;;20.30;75.60;;;;;;4977777;28;44135;-70
2022/10/23 12:52:32;;;;;;;3.97;2.30;;;20.20;75.90;;;;;;4979143;28;44094;-71
2022/10/23 12:55:00;;;;;;;2.60;2.50;;;20.20;76.00;;;;;;4978968;28;44006;-72
2022/10/23 12:57:29;;;;;;;2.40;2.30;;;20.20;76.10;;;;;;4979626;28;43556;-72
2022/10/23 12:59:59;;;;;;;2.37;2.27;;;20.20;76.30;;;;;;4983717;28;43519;-73
2022/10/23 13:02:27;;;;;;;4.53;2.40;;;20.10;76.30;;;;;;4977931;28;43995;-71
2022/10/23 13:04:57;;;;;;;2.80;2.60;;;20.10;76.30;;;;;;4982158;28;43484;-71
2022/10/23 13:07:26;;;;;;;2.90;2.50;;;20.10;76.00;;;;;;4974233;28;43474;-71
2022/10/23 13:09:57;;;;;;;2.63;2.43;;;20.20;75.70;;;;;;4976131;28;43503;-71
2022/10/23 13:12:29;;;;;;;2.10;2.00;;;20.20;75.50;;;;;;4986195;28;43839;-71
2022/10/23 13:15:02;;;;;;;2.47;2.27;;;20.20;75.60;;;;;;4974180;28;45014;-71
2022/10/23 13:17:37;;;;;;;2.40;2.20;;;20.20;75.90;;;;;;4980914;28;43475;-70